Weather at Wolf Creek Airport [CLOSED]

Public forecast

Using degrees Celsius for public forecast. Weather courtesy of forecast.io.

Closest aviation weather report (METAR) to Wolf Creek Airport

Closest report is Cranbrook/Canadian Rockies International Airport, 12.9 nm (23.9 km) S.

2024/07/13 22:00 (retrieved 28 minutes ago)

CYXC 132200Z 10003KT 25SM SCT120 SCT240 31/05 A2996 RMK CU3CI1 SLP120 DENSITY ALT 5600FT

Closest aviation forecast (TAF) to Wolf Creek Airport

Closest forecast is Cranbrook/Canadian Rockies International Airport, 12.9 nm (23.9 km) S.

2024/07/13 19:42 (retrieved 3 hours ago)

TAF CYXC 131840Z 1319/1407 12005KT P6SM FEW110 FM132100 24008KT P6SM SCT120 TEMPO 1321/1403 VRB15G25KT P6SM -SHRA VCTS BKN100CB RMK NXT FCST BY 140100Z